Terminal Aerodrome Forecast
Issued by NWS Cleveland, OH

Home | Current Version | Previous Version | Text Only | Print | Product List | Glossary Off
Versions: 1 2 3 4 5 6 7 8 9 10 11 12 13 14 15 16 17 18

000
FTUS41 KCLE 180500
TAFCAK
TAF
KCAK 180520Z 1806/1906 27012KT P6SM -SHSN OVC022
     FM181300 28008KT P6SM OVC025
     FM182200 27008KT P6SM OVC035
     FM190400 27005KT P6SM OVC025=

USA.gov is the U.S. government's official web portal to all federal, state and local government web resources and services.